Time;durP1;ratioP1;P1;durP2;ratioP2;P2;SDS_P1;SDS_P2;PMS_P1;PMS_P2;Temp;Humidity;BMP_temperature;BMP_pressure;BME280_temperature;BME280_humidity;BME280_pressure;Samples;Min_cycle;Max_cycle;Signal;HPM_P1;HPM_P2
2023/01/17 04:25:15;;;;;;;62.60;29.50;;;;;;;4.52;100.00;98957.38;107078;1280;613658;-93
2023/01/17 04:32:14;;;;;;;56.20;24.70;;;;;;;6.29;100.00;98956.52;107208;1267;59994;-64
2023/01/17 04:34:41;;;;;;;48.60;24.30;;;;;;;6.39;100.00;98953.67;107190;1267;73522;-64
2023/01/17 04:37:08;;;;;;;55.60;24.80;;;;;;;6.68;100.00;98956.91;107136;1268;130559;-64
2023/01/17 04:39:34;;;;;;;52.40;23.30;;;;;;;6.85;100.00;98957.95;107298;1265;73569;-65
2023/01/17 04:42:01;;;;;;;42.50;20.50;;;;;;;7.01;100.00;98964.48;107356;1264;62419;-66
2023/01/17 04:44:28;;;;;;;47.00;22.00;;;;;;;6.87;100.00;98964.88;107445;1263;61367;-64
2023/01/17 04:46:55;;;;;;;46.00;22.40;;;;;;;7.09;100.00;98963.96;107412;1262;72526;-65
2023/01/17 04:49:21;;;;;;;45.90;22.40;;;;;;;7.27;100.00;98970.21;107381;1263;69517;-65
2023/01/17 04:51:48;;;;;;;48.10;23.30;;;;;;;7.29;100.00;98971.18;107370;1263;73733;-66
2023/01/17 04:54:15;;;;;;;41.40;22.40;;;;;;;7.09;100.00;98971.64;107391;1263;60866;-65
2023/01/17 04:56:41;;;;;;;38.20;20.80;;;;;;;7.10;100.00;98968.14;107824;1257;61558;-64
2023/01/17 04:59:08;;;;;;;43.90;20.10;;;;;;;7.13;100.00;98967.63;107829;1257;73329;-64
2023/01/17 05:01:35;;;;;;;40.30;20.10;;;;;;;6.95;100.00;98968.20;107856;1257;71577;-66
2023/01/17 05:04:02;;;;;;;40.10;20.40;;;;;;;6.84;100.00;98968.80;107817;1257;73389;-67
2023/01/17 05:06:29;;;;;;;40.50;20.70;;;;;;;6.95;100.00;98966.64;107815;1257;59002;-66
2023/01/17 05:08:56;;;;;;;42.60;21.00;;;;;;;6.85;100.00;98964.05;107807;1257;62170;-65
2023/01/17 05:11:23;;;;;;;40.40;19.20;;;;;;;6.83;100.00;98964.15;107721;1257;74232;-62
2023/01/17 05:13:49;;;;;;;40.70;19.40;;;;;;;6.91;100.00;98957.19;107780;1257;70085;-65
2023/01/17 05:16:18;;;;;;;38.20;20.60;;;;;;;6.73;100.00;98961.93;107752;1257;73808;-65
2023/01/17 05:18:44;;;;;;;44.70;21.00;;;;;;;6.62;100.00;98959.92;107726;1257;61220;-65
2023/01/17 05:21:11;;;;;;;46.00;22.40;;;;;;;6.59;100.00;98962.14;107796;1257;61359;-62
2023/01/17 05:23:39;;;;;;;48.20;21.40;;;;;;;6.73;100.00;98961.23;107763;1257;73710;-65
2023/01/17 05:26:07;;;;;;;40.60;21.10;;;;;;;6.85;100.00;98959.18;107770;1260;70296;-63
2023/01/17 05:28:35;;;;;;;41.30;21.10;;;;;;;6.64;100.00;98965.96;107796;1257;73720;-65
2023/01/17 05:31:01;;;;;;;43.80;22.50;;;;;;;6.81;100.00;98958.98;107749;1257;62188;-62
2023/01/17 05:33:28;;;;;;;45.70;24.50;;;;;;;6.91;100.00;98950.20;107766;1256;61247;-65
2023/01/17 05:35:56;;;;;;;42.30;22.00;;;;;;;7.05;100.00;98944.59;107729;1257;74454;-65
2023/01/17 05:38:22;;;;;;;48.50;22.40;;;;;;;6.93;100.00;98937.05;107736;1257;71505;-66
2023/01/17 05:40:49;;;;;;;50.60;23.10;;;;;;;6.73;100.00;98945.03;107799;1257;72908;-66
2023/01/17 05:43:16;;;;;;;52.20;25.10;;;;;;;6.94;100.00;98944.36;107678;1257;61488;-65
2023/01/17 05:45:42;;;;;;;45.50;21.10;;;;;;;6.89;100.00;98946.64;107831;1257;59660;-67
2023/01/17 05:48:09;;;;;;;48.00;23.60;;;;;;;6.79;100.00;98944.60;107798;1256;73580;-65
2023/01/17 05:50:36;;;;;;;51.00;24.80;;;;;;;6.87;100.00;98946.89;107860;1257;71382;-64
2023/01/17 05:53:05;;;;;;;50.50;24.20;;;;;;;6.85;100.00;98944.70;107682;1257;73475;-65
2023/01/17 05:55:32;;;;;;;45.30;22.20;;;;;;;6.80;100.00;98951.20;107780;1257;61387;-65
2023/01/17 05:57:59;;;;;;;50.70;24.30;;;;;;;7.08;100.00;98947.80;107813;1257;61145;-66
2023/01/17 06:00:27;;;;;;;49.10;24.50;;;;;;;7.17;100.00;98946.17;108027;1256;71967;-65
2023/01/17 06:02:54;;;;;;;51.00;24.40;;;;;;;7.20;100.00;98953.05;108020;1254;69818;-65
2023/01/17 06:05:22;;;;;;;45.70;23.30;;;;;;;7.23;100.00;98950.13;108059;1257;73640;-65
2023/01/17 06:07:48;;;;;;;45.20;23.10;;;;;;;7.40;100.00;98948.02;108048;1257;59276;-64
2023/01/17 06:10:16;;;;;;;48.10;23.10;;;;;;;7.32;100.00;98949.75;108009;1257;61352;-66
2023/01/17 06:12:44;;;;;;;54.90;24.60;;;;;;;6.96;100.00;98957.70;108096;1257;72415;-64
2023/01/17 06:15:14;;;;;;;52.90;25.00;;;;;;;6.95;100.00;98958.23;108068;1256;70542;-65
2023/01/17 06:17:41;;;;;;;50.20;25.00;;;;;;;7.04;100.00;98961.41;107895;1255;71731;-65
2023/01/17 06:20:09;;;;;;;50.10;24.90;;;;;;;7.14;100.00;98962.02;108036;1255;62235;-66
2023/01/17 06:22:36;;;;;;;47.50;24.70;;;;;;;7.09;100.00;98969.70;108091;1254;61410;-64
2023/01/17 06:25:04;;;;;;;47.20;25.20;;;;;;;7.20;100.00;98968.41;108077;1255;74027;-65
2023/01/17 06:27:31;;;;;;;58.60;27.90;;;;;;;7.29;100.00;98968.90;108053;1257;70158;-65
2023/01/17 06:30:00;;;;;;;50.30;26.60;;;;;;;7.43;100.00;98975.47;108056;1255;73288;-64
2023/01/17 06:32:27;;;;;;;56.60;27.00;;;;;;;7.45;100.00;98975.53;108063;1257;61562;-65
2023/01/17 06:34:53;;;;;;;54.00;26.50;;;;;;;7.62;100.00;98977.45;108050;1255;61300;-65
2023/01/17 06:37:23;;;;;;;52.50;25.20;;;;;;;7.76;100.00;98981.02;108021;1259;73442;-65
2023/01/17 06:39:49;;;;;;;51.20;24.60;;;;;;;7.75;100.00;98983.85;107970;1256;70546;-65
2023/01/17 06:42:16;;;;;;;61.70;27.40;;;;;;;7.66;100.00;98981.44;108057;1257;71561;-65
2023/01/17 06:44:43;;;;;;;48.90;23.10;;;;;;;7.63;100.00;98983.18;108009;1256;62201;-65
2023/01/17 06:47:10;;;;;;;53.80;27.20;;;;;;;7.70;100.00;98982.83;107966;1254;59616;-66
2023/01/17 06:49:37;;;;;;;58.60;27.00;;;;;;;7.86;100.00;98982.67;108015;1257;72267;-65
2023/01/17 06:52:03;;;;;;;54.00;26.90;;;;;;;7.70;100.00;98990.91;108049;1254;69925;-65
2023/01/17 06:54:31;;;;;;;51.30;25.40;;;;;;;7.61;100.00;98984.98;107888;1257;71810;-64
2023/01/17 06:56:57;;;;;;;55.20;24.60;;;;;;;7.75;100.00;98990.84;107971;1255;62127;-64
2023/01/17 06:59:24;;;;;;;59.50;28.40;;;;;;;7.84;100.00;98990.80;108050;1254;60970;-65
2023/01/17 07:01:51;;;;;;;60.30;28.40;;;;;;;7.94;100.00;98988.97;108024;1256;73633;-65
2023/01/17 07:04:18;;;;;;;48.20;22.90;;;;;;;7.89;100.00;98991.64;108040;1255;70901;-65
2023/01/17 07:06:45;;;;;;;64.50;29.00;;;;;;;7.66;100.00;98991.58;108007;1254;72545;-64
2023/01/17 07:09:11;;;;;;;55.30;27.00;;;;;;;7.31;100.00;98990.33;108032;1255;62572;-65
2023/01/17 07:11:38;;;;;;;54.20;28.40;;;;;;;7.71;100.00;98982.48;107969;1254;61399;-64
2023/01/17 07:14:04;;;;;;;56.50;28.80;;;;;;;7.53;100.00;98982.18;108013;1254;74340;-65
2023/01/17 07:16:32;;;;;;;52.90;24.70;;;;;;;7.83;100.00;98978.09;107973;1254;69991;-64
2023/01/17 07:18:59;;;;;;;66.90;31.10;;;;;;;7.62;100.00;98977.62;107958;1254;73586;-65
2023/01/17 07:21:26;;;;;;;64.80;28.20;;;;;;;7.59;100.00;98973.02;107943;1254;62128;-65
2023/01/17 07:23:53;;;;;;;57.60;28.10;;;;;;;7.80;100.00;98983.98;108031;1254;61303;-65
2023/01/17 07:26:19;;;;;;;65.70;28.50;;;;;;;7.85;100.00;98980.30;108022;1255;73760;-65
2023/01/17 07:28:46;;;;;;;61.30;28.20;;;;;;;7.95;100.00;98977.95;108055;1254;71659;-65
2023/01/17 07:31:13;;;;;;;65.30;30.50;;;;;;;7.90;100.00;98983.20;108033;1257;73870;-65
2023/01/17 07:33:40;;;;;;;66.00;31.10;;;;;;;7.87;100.00;98977.38;108028;1254;61048;-64
2023/01/17 07:36:08;;;;;;;60.40;29.50;;;;;;;7.81;100.00;98976.11;108018;1255;61630;-66
2023/01/17 07:38:34;;;;;;;75.80;31.40;;;;;;;8.05;100.00;98973.64;108097;1257;72364;-65
2023/01/17 07:41:01;;;;;;;71.50;30.60;;;;;;;8.03;100.00;98975.46;108021;1254;70638;-66
2023/01/17 07:43:28;;;;;;;67.30;27.80;;;;;;;8.00;100.00;98969.51;107999;1254;74272;-66
2023/01/17 07:45:54;;;;;;;67.70;32.90;;;;;;;7.87;100.00;98972.70;107983;1254;62104;-66
2023/01/17 07:48:22;;;;;;;60.60;29.90;;;;;;;7.83;100.00;98965.69;108002;1256;61618;-65
2023/01/17 07:50:55;;;;;;;67.40;32.30;;;;;;;7.78;100.00;98965.38;108054;1256;72883;-65
2023/01/17 07:53:23;;;;;;;61.50;27.70;;;;;;;7.95;100.00;98958.16;108004;1257;71410;-65
2023/01/17 07:55:52;;;;;;;62.70;29.90;;;;;;;7.97;100.00;98959.33;107979;1255;72537;-65
2023/01/17 07:58:19;;;;;;;59.50;27.30;;;;;;;8.09;100.00;98955.98;107987;1256;60764;-65
2023/01/17 08:00:46;;;;;;;65.70;32.50;;;;;;;7.96;100.00;98960.05;108018;1256;61286;-65
2023/01/17 08:03:15;;;;;;;65.30;28.90;;;;;;;8.22;100.00;98960.96;107952;1257;73902;-65
2023/01/17 08:05:42;;;;;;;73.40;30.50;;;;;;;8.27;100.00;98960.21;107992;1256;71223;-65
2023/01/17 14:16:27;;;;;;;105.40;48.60;;;;;;;6.20;100.00;98712.85;105718;1280;616775;-58
2023/01/17 14:18:54;;;;;;;103.00;47.90;;;;;;;7.06;100.00;98706.33;107286;1263;125198;-62
2023/01/17 14:21:24;;;;;;;91.10;43.50;;;;;;;6.83;100.00;98702.83;107454;1263;60272;-63
2023/01/17 14:24:04;;;;;;;100.20;48.20;;;;;;;7.14;100.00;98695.34;107982;1256;72348;-63
2023/01/17 14:26:40;;;;;;;107.00;47.10;;;;;;;7.14;100.00;98691.52;108021;1257;71352;-63
2023/01/17 14:29:42;;;;;;;106.70;47.50;;;;;;;7.11;100.00;98697.55;107990;1256;71987;-64
2023/01/17 14:32:34;;;;;;;107.20;50.20;;;;;;;7.30;100.00;98691.94;107951;1256;62399;-64
2023/01/17 14:35:01;;;;;;;108.20;47.50;;;;;;;7.35;100.00;98690.34;107942;1256;59977;-63
2023/01/17 14:37:44;;;;;;;98.50;44.70;;;;;;;7.37;100.00;98699.13;108071;1256;73435;-63
2023/01/17 14:40:19;;;;;;;91.30;37.70;;;;;;;7.44;100.00;98704.04;107981;1257;71291;-63
2023/01/17 14:43:13;;;;;;;114.00;50.70;;;;;;;7.39;100.00;98710.25;107972;1255;72888;-62
2023/01/17 14:45:40;;;;;;;108.70;50.10;;;;;;;7.49;100.00;98703.67;107944;1259;62460;-63
2023/01/17 14:48:20;;;;;;;111.50;50.90;;;;;;;7.53;100.00;98703.27;107948;1256;60066;-62
2023/01/17 14:50:48;;;;;;;150.20;84.00;;;;;;;7.65;100.00;98705.34;107846;1256;73463;-63
2023/01/17 14:53:26;;;;;;;135.30;64.80;;;;;;;7.56;100.00;98715.00;107876;1256;70257;-63
2023/01/17 14:55:56;;;;;;;438.70;202.40;;;;;;;7.56;100.00;98711.16;107911;1257;73500;-62
2023/01/17 14:58:27;;;;;;;266.00;109.90;;;;;;;7.56;100.00;98711.70;107866;1256;61907;-60
2023/01/17 15:01:10;;;;;;;111.20;49.30;;;;;;;7.47;100.00;98714.94;107881;1256;61469;-64
2023/01/17 15:03:44;;;;;;;123.50;57.10;;;;;;;7.44;100.00;98717.69;107638;1256;74217;-63
2023/01/17 15:06:21;;;;;;;186.30;89.50;;;;;;;7.34;100.00;98705.21;107888;1257;71270;-63
2023/01/17 15:08:48;;;;;;;115.30;56.30;;;;;;;7.45;100.00;98697.02;107784;1256;73913;-61
2023/01/17 15:11:24;;;;;;;134.50;64.70;;;;;;;7.63;100.00;98701.59;107885;1256;62217;-63
2023/01/17 15:13:53;;;;;;;91.70;46.80;;;;;;;7.52;100.00;98698.46;107878;1256;61254;-63
2023/01/17 15:16:32;;;;;;;96.70;45.30;;;;;;;7.69;100.00;98704.27;107906;1257;73992;-63
2023/01/17 15:18:59;;;;;;;88.40;41.80;;;;;;;7.80;100.00;98704.45;107810;1256;70386;-61
2023/01/17 15:21:39;;;;;;;104.40;47.50;;;;;;;7.81;100.00;98704.92;107770;1257;73601;-64
2023/01/17 15:24:07;;;;;;;112.90;49.80;;;;;;;7.85;100.00;98705.08;107733;1257;61175;-62
2023/01/17 15:26:38;;;;;;;124.10;55.10;;;;;;;7.94;100.00;98699.41;107952;1256;59637;-63
2023/01/17 15:29:06;;;;;;;125.50;55.20;;;;;;;7.92;100.00;98694.59;107939;1256;72783;-65
2023/01/17 15:31:46;;;;;;;99.70;45.70;;;;;;;7.90;100.00;98698.88;107896;1257;71593;-62
2023/01/17 15:34:19;;;;;;;93.40;42.80;;;;;;;7.68;100.00;98698.74;107907;1260;74063;-63
2023/01/17 15:36:49;;;;;;;105.40;47.90;;;;;;;7.75;100.00;98699.94;107800;1256;61781;-64
2023/01/17 15:39:21;;;;;;;98.30;46.90;;;;;;;7.93;100.00;98701.36;107929;1257;60044;-63
2023/01/17 15:41:51;;;;;;;99.80;42.70;;;;;;;8.11;100.00;98699.94;107997;1257;74826;-64
2023/01/17 15:44:30;;;;;;;112.20;52.90;;;;;;;8.25;100.00;98698.75;108196;1254;71498;-63
2023/01/17 15:47:30;;;;;;;108.50;49.20;;;;;;;7.98;100.00;98697.98;108097;1254;72903;-64
2023/01/17 15:49:59;;;;;;;122.10;50.80;;;;;;;7.75;100.00;98705.53;108090;1257;60164;-63
2023/01/17 15:52:25;;;;;;;111.70;48.20;;;;;;;7.97;100.00;98698.88;108051;1254;61249;-64
2023/01/17 15:54:57;;;;;;;104.40;47.80;;;;;;;7.92;100.00;98694.40;107907;1254;74303;-64
2023/01/17 15:57:25;;;;;;;97.10;43.00;;;;;;;8.02;100.00;98686.41;107938;1254;71013;-63
2023/01/17 16:00:20;;;;;;;96.00;42.80;;;;;;;8.08;100.00;98696.27;108103;1254;76223;-62
2023/01/17 16:02:55;;;;;;;87.40;43.50;;;;;;;8.21;100.00;98701.56;108047;1254;60917;-63
2023/01/17 16:05:23;;;;;;;88.90;45.70;;;;;;;8.39;100.00;98709.91;108018;1254;60214;-62
2023/01/17 16:07:51;;;;;;;99.60;45.90;;;;;;;8.57;100.00;98716.02;107980;1254;74017;-64
2023/01/17 22:21:18;;;;;;;116.40;50.40;;;;;;;8.01;100.00;98897.08;107032;1272;63225;-64
2023/01/17 22:23:47;;;;;;;101.90;45.80;;;;;;;8.39;100.00;98898.29;107044;1271;62284;-63
2023/01/17 22:26:13;;;;;;;103.30;48.40;;;;;;;8.34;100.00;98898.34;106927;1272;72905;-63
2023/01/17 22:28:41;;;;;;;103.10;47.60;;;;;;;8.52;100.00;98901.84;107475;1260;72581;-61
2023/01/17 22:31:12;;;;;;;121.60;54.10;;;;;;;8.74;100.00;98900.98;107678;1259;145687;-64
2023/01/17 22:33:40;;;;;;;112.00;49.00;;;;;;;8.82;100.00;98897.83;107737;1259;62578;-64
2023/01/17 22:36:08;;;;;;;109.60;48.50;;;;;;;8.80;100.00;98899.80;107680;1258;60671;-63
2023/01/17 22:38:36;;;;;;;162.70;60.90;;;;;;;8.72;100.00;98896.17;107822;1258;72315;-63
2023/01/17 22:41:08;;;;;;;123.80;49.60;;;;;;;8.61;100.00;98897.95;107771;1258;71794;-64
2023/01/17 22:43:40;;;;;;;147.90;53.90;;;;;;;8.46;100.00;98899.20;107742;1259;70969;-64
2023/01/17 22:46:08;;;;;;;173.10;72.90;;;;;;;8.46;100.00;98900.06;107803;1259;63629;-64
2023/01/17 22:48:36;;;;;;;140.40;54.80;;;;;;;8.47;100.00;98899.48;107839;1257;61227;-61
2023/01/17 22:51:04;;;;;;;136.70;54.20;;;;;;;8.37;100.00;98902.59;107659;1259;72088;-62
2023/01/17 22:53:31;;;;;;;115.10;47.70;;;;;;;8.46;100.00;98900.93;107602;1259;72227;-63
2023/01/17 22:56:02;;;;;;;83.00;37.00;;;;;;;8.51;100.00;98897.90;107586;1262;72762;-62
2023/01/17 22:58:29;;;;;;;105.00;44.10;;;;;;;8.57;100.00;98894.62;107598;1259;61847;-64
2023/01/17 23:01:04;;;;;;;115.80;52.10;;;;;;;8.61;100.00;98890.56;107693;1259;60175;-62
2023/01/17 23:03:32;;;;;;;101.00;47.00;;;;;;;8.67;100.00;98891.55;107590;1259;75350;-64
2023/01/17 23:06:13;;;;;;;80.70;35.90;;;;;;;8.67;100.00;98890.48;107684;1259;72212;-66
2023/01/17 23:08:41;;;;;;;89.80;42.50;;;;;;;8.41;100.00;98899.92;107704;1258;74986;-64
2023/01/17 23:11:38;;;;;;;94.00;43.60;;;;;;;8.35;100.00;98900.21;107598;1259;63216;-64
2023/01/17 23:14:22;;;;;;;80.60;38.30;;;;;;;8.36;100.00;98903.84;107675;1259;61400;-64
2023/01/17 23:19:40;;;;;;;85.00;41.20;;;;;;;8.24;100.00;98899.87;107577;1259;72165;-60
2023/01/17 23:22:33;;;;;;;80.60;37.50;;;;;;;8.23;100.00;98896.05;107722;1259;71709;-62
2023/01/17 23:25:01;;;;;;;85.80;43.00;;;;;;;8.14;100.00;98899.80;107728;1258;63007;-64
2023/01/17 23:30:35;;;;;;;85.20;41.80;;;;;;;8.24;100.00;98905.79;107769;1257;71475;-60
2023/01/17 23:33:07;;;;;;;92.50;42.70;;;;;;;8.20;100.00;98910.36;107766;1257;70936;-63
2023/01/17 23:35:35;;;;;;;79.10;40.70;;;;;;;8.30;100.00;98909.17;107637;1263;75017;-62
2023/01/17 23:38:30;;;;;;;81.10;38.30;;;;;;;8.24;100.00;98909.83;107718;1257;63445;-63
2023/01/17 23:43:52;;;;;;;76.10;37.80;;;;;;;8.29;100.00;98916.05;107685;1257;75615;-63
2023/01/17 23:46:19;;;;;;;76.90;37.90;;;;;;;8.35;100.00;98915.94;107665;1263;70546;-63
2023/01/17 23:48:46;;;;;;;71.60;37.40;;;;;;;8.39;100.00;98918.76;107704;1262;74025;-64
2023/01/17 23:51:13;;;;;;;84.90;40.30;;;;;;;8.47;100.00;98919.93;107643;1257;59627;-61
2023/01/17 23:53:40;;;;;;;78.00;39.50;;;;;;;8.56;100.00;98924.41;107599;1258;62110;-61
2023/01/17 23:56:15;;;;;;;82.50;39.90;;;;;;;8.58;100.00;98928.52;107676;1257;74325;-61
